createdAt,value
2017-12-20T00:01:07.737Z,33.40
2017-12-20T00:03:37.680Z,32.93
2017-12-20T00:06:06.115Z,39.07
2017-12-20T00:08:33.737Z,35.30
2017-12-20T00:11:01.262Z,31.10
2017-12-20T00:13:28.803Z,33.53
2017-12-20T00:15:57.097Z,34.13
2017-12-20T00:18:24.641Z,33.57
2017-12-20T00:20:52.943Z,31.70
2017-12-20T00:23:20.550Z,32.60
2017-12-20T00:25:48.176Z,32.47
2017-12-20T00:28:15.944Z,32.27
2017-12-20T00:30:43.688Z,35.93
2017-12-20T00:33:11.479Z,34.47
2017-12-20T00:35:39.145Z,32.57
2017-12-20T00:38:07.041Z,36.33
2017-12-20T00:40:35.822Z,31.87
2017-12-20T00:43:04.303Z,31.67
2017-12-20T00:45:31.834Z,34.67
2017-12-20T00:47:59.374Z,33.57
2017-12-20T00:50:27.664Z,35.50
2017-12-20T00:52:55.208Z,31.33
2017-12-20T00:55:22.729Z,34.40
2017-12-20T00:57:50.334Z,34.30
2017-12-20T01:00:18.159Z,32.60
2017-12-20T01:02:46.642Z,34.83
2017-12-20T01:05:15.166Z,33.30
2017-12-20T01:07:44.551Z,35.43
2017-12-20T01:10:12.445Z,33.77
2017-12-20T01:12:40.918Z,35.03
2017-12-20T01:15:09.115Z,35.03
2017-12-20T01:17:37.167Z,34.87
2017-12-20T01:20:04.727Z,33.93
2017-12-20T01:22:32.264Z,33.33
2017-12-20T01:25:00.553Z,34.50
2017-12-20T01:27:28.106Z,33.83
2017-12-20T01:29:55.632Z,34.47
2017-12-20T01:32:23.169Z,36.57
2017-12-20T01:34:50.812Z,32.70
2017-12-20T01:37:18.685Z,35.43
2017-12-20T01:39:47.248Z,32.63
2017-12-20T01:42:32.613Z,37.07
2017-12-20T01:45:00.153Z,34.03
2017-12-20T01:47:28.440Z,36.63
2017-12-20T01:49:56.746Z,37.10
2017-12-20T01:52:24.271Z,36.07
2017-12-20T01:54:52.567Z,38.17
2017-12-20T01:57:20.273Z,36.97
2017-12-20T01:59:47.955Z,38.00
2017-12-20T02:02:15.642Z,36.83
2017-12-20T02:04:43.594Z,35.80
2017-12-20T02:07:11.968Z,37.47
2017-12-20T02:09:39.940Z,35.07
2017-12-20T02:12:09.160Z,36.60
2017-12-20T02:14:37.953Z,36.07
2017-12-20T02:17:05.589Z,35.70
2017-12-20T02:19:33.950Z,35.23
2017-12-20T02:22:01.474Z,35.53
2017-12-20T02:24:29.027Z,35.17
2017-12-20T02:26:56.567Z,36.33
2017-12-20T02:29:24.131Z,35.50
2017-12-20T02:31:51.709Z,37.73
2017-12-20T02:34:19.686Z,37.13
2017-12-20T02:36:47.467Z,36.47
2017-12-20T02:39:15.320Z,37.57
2017-12-20T02:41:44.261Z,38.97
2017-12-20T02:44:12.437Z,38.20
2017-12-20T02:46:41.249Z,40.07
2017-12-20T02:49:10.470Z,37.00
2017-12-20T02:51:38.916Z,36.90
2017-12-20T02:54:07.186Z,37.73
2017-12-20T02:56:35.607Z,36.70
2017-12-20T02:59:03.913Z,38.60
2017-12-20T03:01:32.991Z,36.87
2017-12-20T03:04:00.513Z,38.93
2017-12-20T03:06:28.037Z,38.60
2017-12-20T03:08:55.582Z,37.87
2017-12-20T03:11:23.894Z,38.97
2017-12-20T03:13:51.564Z,37.57
2017-12-20T03:16:19.524Z,38.87
2017-12-20T03:18:47.391Z,36.77
2017-12-20T03:21:15.091Z,37.50
2017-12-20T03:23:43.153Z,37.80
2017-12-20T03:26:11.714Z,37.33
2017-12-20T03:28:39.481Z,36.30
2017-12-20T03:31:07.129Z,39.87
2017-12-20T03:33:34.691Z,35.07
2017-12-20T03:36:02.214Z,37.13
2017-12-20T03:38:29.773Z,37.73
2017-12-20T03:40:58.080Z,39.50
2017-12-20T03:43:25.600Z,37.27
2017-12-20T03:45:53.137Z,37.43
2017-12-20T03:48:21.104Z,38.57
2017-12-20T03:50:49.142Z,35.97
2017-12-20T03:53:17.129Z,36.20
2017-12-20T03:55:44.724Z,35.70
2017-12-20T03:58:13.394Z,35.40
2017-12-20T04:00:41.558Z,36.60
2017-12-20T04:03:09.315Z,36.53
2017-12-20T04:05:43.157Z,35.93
2017-12-20T04:08:11.249Z,35.80
2017-12-20T04:10:39.056Z,34.23
2017-12-20T04:13:06.730Z,34.67
2017-12-20T04:15:34.471Z,35.60
2017-12-20T04:18:02.769Z,36.50
2017-12-20T04:20:30.334Z,37.20
2017-12-20T04:22:57.911Z,36.97
2017-12-20T04:25:25.428Z,35.87
2017-12-20T04:27:53.734Z,36.63
2017-12-20T04:30:21.323Z,38.37
2017-12-20T04:32:49.437Z,35.23
2017-12-20T04:35:17.175Z,37.50
2017-12-20T04:37:45.206Z,36.77
2017-12-20T04:40:13.243Z,38.17
2017-12-20T04:42:41.738Z,37.53
2017-12-20T04:45:09.628Z,38.60
2017-12-20T04:47:37.598Z,37.93
2017-12-20T04:50:05.137Z,35.77
2017-12-20T04:52:32.706Z,35.97
2017-12-20T04:55:00.231Z,38.80
2017-12-20T04:57:28.683Z,37.37
2017-12-20T04:59:56.208Z,37.47
2017-12-20T05:02:24.258Z,37.97
2017-12-20T05:04:52.593Z,36.70
2017-12-20T05:07:20.355Z,37.03
2017-12-20T05:09:48.063Z,38.87
2017-12-20T05:12:15.747Z,38.43
2017-12-20T05:14:43.401Z,37.57
2017-12-20T05:17:11.638Z,38.60
2017-12-20T05:19:39.989Z,38.23
2017-12-20T05:22:10.064Z,36.63
2017-12-20T05:24:38.802Z,37.07
2017-12-20T05:27:06.646Z,36.20
2017-12-20T05:29:34.274Z,37.30
2017-12-20T05:32:02.562Z,36.50
2017-12-20T05:34:30.913Z,37.77
2017-12-20T05:36:58.434Z,38.27
2017-12-20T05:39:25.959Z,36.93
2017-12-20T05:41:54.273Z,37.10
2017-12-20T05:44:21.836Z,36.53
2017-12-20T05:46:49.636Z,38.00
2017-12-20T05:49:17.312Z,38.33
2017-12-20T05:51:47.160Z,37.90
2017-12-20T05:54:15.220Z,36.57
2017-12-20T05:56:44.390Z,40.60
2017-12-20T05:59:13.569Z,42.40
2017-12-20T06:01:44.458Z,38.93
2017-12-20T06:04:14.636Z,38.47
2017-12-20T06:06:43.863Z,41.60
2017-12-20T06:09:13.599Z,40.20
2017-12-20T06:11:42.882Z,41.97
2017-12-20T06:14:11.316Z,38.43
2017-12-20T06:16:41.139Z,43.30
2017-12-20T06:19:10.543Z,41.20
2017-12-20T06:21:40.254Z,41.57
2017-12-20T06:24:11.551Z,39.00
2017-12-20T06:26:40.510Z,39.50
2017-12-20T06:29:11.230Z,40.13
2017-12-20T06:31:40.775Z,39.57
2017-12-20T06:34:11.325Z,41.20
2017-12-20T06:36:40.181Z,40.83
2017-12-20T06:39:09.638Z,40.93
2017-12-20T06:41:38.405Z,40.40
2017-12-20T06:44:06.289Z,41.17
2017-12-20T06:46:34.371Z,40.20
2017-12-20T06:49:01.932Z,40.97
2017-12-20T06:51:29.472Z,39.43
2017-12-20T06:53:57.024Z,39.17
2017-12-20T06:56:24.555Z,40.93
2017-12-20T06:58:52.063Z,40.53
2017-12-20T07:01:20.312Z,39.13
2017-12-20T07:03:47.847Z,39.50
2017-12-20T07:06:15.728Z,40.47
2017-12-20T07:08:44.452Z,40.27
2017-12-20T07:11:12.905Z,40.27
2017-12-20T07:13:42.694Z,39.20
2017-12-20T07:16:10.732Z,41.20
2017-12-20T07:18:39.206Z,41.83
2017-12-20T07:21:07.947Z,41.37
2017-12-20T07:23:37.336Z,39.67
2017-12-20T07:26:05.116Z,41.37
2017-12-20T07:28:32.968Z,40.97
2017-12-20T07:31:01.178Z,41.67
2017-12-20T07:33:28.815Z,41.67
2017-12-20T07:35:56.608Z,41.97
2017-12-20T07:38:24.241Z,41.63
2017-12-20T07:40:51.749Z,41.27
2017-12-20T07:43:19.264Z,43.97
2017-12-20T07:45:46.957Z,43.60
2017-12-20T07:48:14.979Z,42.03
2017-12-20T07:50:43.128Z,42.97
2017-12-20T07:53:12.573Z,42.13
2017-12-20T07:55:41.374Z,41.20
2017-12-20T07:58:10.097Z,42.37
2017-12-20T08:00:39.159Z,44.53
2017-12-20T08:03:07.350Z,40.50
2017-12-20T08:05:35.465Z,42.07
2017-12-20T08:08:03.137Z,42.77
2017-12-20T08:10:31.131Z,42.80
2017-12-20T08:12:58.982Z,40.40
2017-12-20T08:15:27.381Z,42.33
2017-12-20T08:17:54.896Z,42.53
2017-12-20T08:20:22.418Z,42.90
2017-12-20T08:22:49.936Z,41.30
2017-12-20T08:25:17.456Z,38.00
2017-12-20T08:27:45.330Z,42.53
2017-12-20T08:30:13.411Z,40.87
2017-12-20T08:32:41.815Z,40.43
2017-12-20T08:35:11.765Z,43.70
2017-12-20T08:37:41.130Z,41.43
2017-12-20T08:40:10.211Z,43.63
2017-12-20T08:42:40.035Z,42.30
2017-12-20T08:45:10.260Z,44.23
2017-12-20T08:47:39.350Z,42.83
2017-12-20T08:50:08.448Z,43.40
2017-12-20T08:52:37.180Z,47.73
2017-12-20T08:55:04.904Z,42.70
2017-12-20T08:57:32.448Z,46.13
2017-12-20T09:00:00.528Z,45.50
2017-12-20T09:02:28.123Z,44.53
2017-12-20T09:04:55.820Z,44.63
2017-12-20T09:07:23.344Z,42.53
2017-12-20T09:09:51.632Z,44.30
2017-12-20T09:12:20.636Z,43.23
2017-12-20T09:14:48.995Z,41.53
2017-12-20T09:17:16.596Z,44.07
2017-12-20T09:19:44.486Z,43.87
2017-12-20T09:22:13.300Z,42.50
2017-12-20T09:24:42.288Z,42.70
2017-12-20T09:27:10.031Z,43.90
2017-12-20T09:29:38.866Z,39.80
2017-12-20T09:32:06.868Z,43.27
2017-12-20T09:34:34.646Z,41.90
2017-12-20T09:37:02.325Z,42.40
2017-12-20T09:39:30.153Z,40.33
2017-12-20T09:41:57.772Z,40.37
2017-12-20T09:44:26.221Z,38.57
2017-12-20T09:46:53.757Z,37.53
2017-12-20T09:49:22.084Z,39.60
2017-12-20T09:51:49.626Z,40.37
2017-12-20T09:54:17.145Z,40.40
2017-12-20T09:56:45.572Z,41.53
2017-12-20T09:59:13.404Z,40.37
2017-12-20T10:01:42.206Z,38.37
2017-12-20T10:04:10.200Z,37.23
2017-12-20T10:06:39.397Z,36.80
2017-12-20T10:09:08.344Z,38.90
2017-12-20T10:11:35.979Z,39.20
2017-12-20T10:14:03.521Z,39.67
2017-12-20T10:16:31.057Z,36.87
2017-12-20T10:18:58.644Z,36.07
2017-12-20T10:21:26.199Z,34.03
2017-12-20T10:23:53.744Z,31.70
2017-12-20T10:26:21.270Z,32.13
2017-12-20T10:28:49.572Z,32.43
2017-12-20T10:31:17.174Z,33.20
2017-12-20T10:33:45.137Z,33.93
2017-12-20T10:36:12.884Z,32.17
2017-12-20T10:38:40.557Z,32.53
2017-12-20T10:41:08.924Z,28.83
2017-12-20T10:43:36.791Z,28.50
2017-12-20T10:46:05.293Z,29.60
2017-12-20T10:48:32.896Z,28.73
2017-12-20T10:51:02.250Z,27.23
2017-12-20T10:53:30.318Z,27.57
2017-12-20T10:55:57.956Z,28.47
2017-12-20T10:58:25.560Z,25.80
2017-12-20T11:00:53.098Z,25.20
2017-12-20T11:03:20.619Z,25.90
2017-12-20T11:05:48.923Z,23.80
2017-12-20T11:08:16.826Z,24.97
2017-12-20T11:10:45.419Z,25.70
2017-12-20T11:13:13.458Z,26.00
2017-12-20T11:15:41.929Z,25.23
2017-12-20T11:18:09.807Z,24.63
2017-12-20T11:20:37.841Z,26.07
2017-12-20T11:23:05.463Z,24.00
2017-12-20T11:25:33.010Z,24.70
2017-12-20T11:28:01.378Z,23.20
2017-12-20T11:30:29.360Z,23.10
2017-12-20T11:32:58.353Z,20.93
2017-12-20T11:35:26.180Z,22.80
2017-12-20T11:37:54.441Z,22.40
2017-12-20T11:40:21.960Z,21.33
2017-12-20T11:42:49.497Z,23.40
2017-12-20T11:45:17.014Z,22.53
2017-12-20T11:47:44.573Z,22.83
2017-12-20T11:50:12.090Z,22.00
2017-12-20T11:52:39.629Z,20.50
2017-12-20T11:55:07.435Z,21.80
2017-12-20T11:57:35.073Z,22.47
2017-12-20T12:00:03.247Z,19.70
2017-12-20T12:02:31.200Z,21.47
2017-12-20T12:04:58.930Z,20.63
2017-12-20T12:07:26.578Z,19.77
2017-12-20T12:09:54.920Z,22.23
2017-12-20T12:12:22.466Z,20.97
2017-12-20T12:14:50.001Z,20.43
2017-12-20T12:17:17.523Z,20.20
2017-12-20T12:19:45.072Z,21.00
2017-12-20T12:22:12.605Z,21.53
2017-12-20T12:24:40.174Z,20.30
2017-12-20T12:27:07.712Z,20.10
2017-12-20T12:29:36.203Z,19.20
2017-12-20T12:32:04.908Z,19.40
2017-12-20T12:34:32.758Z,19.13
2017-12-20T12:37:00.785Z,16.97
2017-12-20T12:39:28.512Z,17.47
2017-12-20T12:41:56.643Z,17.57
2017-12-20T12:44:24.244Z,18.83
2017-12-20T12:46:52.089Z,19.17
2017-12-20T12:49:20.803Z,19.63
2017-12-20T12:51:48.353Z,25.40
2017-12-20T12:54:15.875Z,18.90
2017-12-20T12:56:44.217Z,17.87
2017-12-20T12:59:11.986Z,18.20
2017-12-20T13:01:39.553Z,17.80
2017-12-20T13:04:07.610Z,17.47
2017-12-20T13:06:35.424Z,19.33
2017-12-20T13:09:04.509Z,18.60
2017-12-20T13:11:33.658Z,19.10
2017-12-20T13:14:02.694Z,18.57
2017-12-20T13:16:31.132Z,18.10
2017-12-20T13:18:59.330Z,18.90
2017-12-20T13:21:27.170Z,22.33
2017-12-20T13:23:55.005Z,18.83
2017-12-20T13:26:23.523Z,25.17
2017-12-20T13:28:51.504Z,25.43
2017-12-20T13:31:20.195Z,20.43
2017-12-20T13:33:47.775Z,21.37
2017-12-20T13:36:15.305Z,20.73
2017-12-20T13:38:42.984Z,18.63
2017-12-20T13:41:10.513Z,19.30
2017-12-20T13:43:38.065Z,18.73
2017-12-20T13:46:05.699Z,20.07
2017-12-20T13:48:33.409Z,18.87
2017-12-20T13:51:01.124Z,18.67
2017-12-20T13:53:28.839Z,20.23
2017-12-20T13:55:56.704Z,21.30
2017-12-20T13:58:24.276Z,20.53
2017-12-20T14:00:51.794Z,21.60
2017-12-20T14:03:20.098Z,22.00
2017-12-20T14:05:47.622Z,23.17
2017-12-20T14:08:22.704Z,19.83
2017-12-20T14:10:50.217Z,23.33
2017-12-20T14:13:18.501Z,21.57
2017-12-20T14:15:46.803Z,21.80
2017-12-20T14:18:14.350Z,20.23
2017-12-20T14:20:41.893Z,20.33
2017-12-20T14:23:10.185Z,20.47
2017-12-20T14:25:38.501Z,19.83
2017-12-20T14:28:06.056Z,18.13
2017-12-20T14:30:33.676Z,19.50
2017-12-20T14:33:02.175Z,20.63
2017-12-20T14:35:30.074Z,19.57
2017-12-20T14:37:58.746Z,20.33
2017-12-20T14:40:26.332Z,21.03
2017-12-20T14:42:53.896Z,18.30
2017-12-20T14:45:21.466Z,19.00
2017-12-20T14:47:49.000Z,20.07
2017-12-20T14:50:16.529Z,20.07
2017-12-20T14:52:44.062Z,21.50
2017-12-20T14:55:12.001Z,22.13
2017-12-20T14:57:39.589Z,20.50
2017-12-20T15:00:07.297Z,22.47
2017-12-20T15:02:35.175Z,20.83
2017-12-20T15:05:02.931Z,18.27
2017-12-20T15:07:30.623Z,18.50
2017-12-20T15:09:59.241Z,20.43
2017-12-20T15:12:29.470Z,18.63
2017-12-20T15:14:57.464Z,18.20
2017-12-20T15:17:25.065Z,19.50
2017-12-20T15:19:52.596Z,18.77
2017-12-20T15:22:20.234Z,18.77
2017-12-20T15:24:47.737Z,19.07
2017-12-20T15:27:16.021Z,17.53
2017-12-20T15:29:43.612Z,18.40
2017-12-20T15:32:11.148Z,18.97
2017-12-20T15:34:39.487Z,18.70
2017-12-20T15:37:07.013Z,19.63
2017-12-20T15:39:34.565Z,18.63
2017-12-20T15:42:02.206Z,20.47
2017-12-20T15:44:30.457Z,20.30
2017-12-20T15:46:58.262Z,20.93
2017-12-20T15:49:26.233Z,19.37
2017-12-20T15:51:54.694Z,20.20
2017-12-20T15:54:22.235Z,19.10
2017-12-20T15:56:50.522Z,21.63
2017-12-20T15:59:18.857Z,18.00
2017-12-20T16:01:46.381Z,18.10
2017-12-20T16:04:13.901Z,17.77
2017-12-20T16:06:41.559Z,18.13
2017-12-20T16:09:09.278Z,17.23
2017-12-20T16:11:37.232Z,19.53
2017-12-20T16:14:04.965Z,17.50
2017-12-20T16:16:32.805Z,18.07
2017-12-20T16:19:01.907Z,21.47
2017-12-20T16:21:31.008Z,17.87
2017-12-20T16:23:58.865Z,20.00
2017-12-20T16:26:28.519Z,21.10
2017-12-20T16:28:56.064Z,20.70
2017-12-20T16:31:24.482Z,24.30
2017-12-20T16:33:52.001Z,22.20
2017-12-20T16:36:19.550Z,21.90
2017-12-20T16:38:47.081Z,22.03
2017-12-20T16:41:14.605Z,22.30
2017-12-20T16:43:42.151Z,20.53
2017-12-20T16:46:09.715Z,23.10
2017-12-20T16:48:37.318Z,22.97
2017-12-20T16:51:05.683Z,26.33
2017-12-20T16:53:42.173Z,20.50
2017-12-20T16:56:10.476Z,18.27
2017-12-20T16:58:37.994Z,18.10
2017-12-20T17:01:05.820Z,20.60
2017-12-20T17:03:33.713Z,19.70
2017-12-20T17:06:01.559Z,18.63
2017-12-20T17:08:29.501Z,18.93
2017-12-20T17:10:58.817Z,19.37
2017-12-20T17:13:26.902Z,18.40
2017-12-20T17:15:54.635Z,17.23
2017-12-20T17:18:23.127Z,18.67
2017-12-20T17:20:50.649Z,16.50
2017-12-20T17:23:18.168Z,16.83
2017-12-20T17:25:45.702Z,17.10
2017-12-20T17:28:13.378Z,17.90
2017-12-20T17:30:41.041Z,16.80
2017-12-20T17:33:08.569Z,15.77
2017-12-20T17:35:36.926Z,15.27
2017-12-20T17:38:04.965Z,15.47
2017-12-20T17:40:32.937Z,14.97
2017-12-20T17:43:02.119Z,14.67
2017-12-20T17:45:30.151Z,13.93
2017-12-20T17:47:58.369Z,14.17
2017-12-20T17:50:26.134Z,15.13
2017-12-20T17:52:54.687Z,15.63
2017-12-20T17:55:22.997Z,14.67
2017-12-20T17:57:51.426Z,13.50
2017-12-20T18:00:20.982Z,14.20
2017-12-20T18:02:48.649Z,13.93
2017-12-20T18:05:16.619Z,15.17
2017-12-20T18:07:44.302Z,15.37
2017-12-20T18:10:11.860Z,14.83
2017-12-20T18:12:39.393Z,15.63
2017-12-20T18:15:06.926Z,14.77
2017-12-20T18:17:35.505Z,14.10
2017-12-20T18:20:03.061Z,14.20
2017-12-20T18:22:30.581Z,14.33
2017-12-20T18:24:58.336Z,14.30
2017-12-20T18:27:26.404Z,14.30
2017-12-20T18:29:55.288Z,13.93
2017-12-20T18:32:23.677Z,13.67
2017-12-20T18:34:52.259Z,14.03
2017-12-20T18:37:21.209Z,13.40
2017-12-20T18:39:49.153Z,14.20
2017-12-20T18:42:17.673Z,12.97
2017-12-20T18:44:46.134Z,13.33
2017-12-20T18:47:13.714Z,13.87
2017-12-20T18:49:42.334Z,13.50
2017-12-20T18:52:10.002Z,14.13
2017-12-20T18:54:37.546Z,14.23
2017-12-20T18:57:05.098Z,14.73
2017-12-20T18:59:33.384Z,14.50
2017-12-20T19:02:01.775Z,15.00
2017-12-20T19:04:30.246Z,14.10
2017-12-20T19:06:58.247Z,13.53
2017-12-20T19:09:26.680Z,14.43
2017-12-20T19:11:54.376Z,16.63
2017-12-20T19:14:22.611Z,15.83
2017-12-20T19:16:53.117Z,15.47
2017-12-20T19:19:21.353Z,15.90
2017-12-20T19:21:50.205Z,17.17
2017-12-20T19:24:19.044Z,16.23
2017-12-20T19:26:46.706Z,17.30
2017-12-20T19:29:14.254Z,16.33
2017-12-20T19:31:41.825Z,16.83
2017-12-20T19:34:10.333Z,16.40
2017-12-20T19:36:38.268Z,18.40
2017-12-20T19:39:05.797Z,16.63
2017-12-20T19:41:34.123Z,16.27
2017-12-20T19:44:02.192Z,15.70
2017-12-20T19:46:30.669Z,17.03
2017-12-20T19:48:59.831Z,17.50
2017-12-20T19:51:28.861Z,18.33
2017-12-20T19:53:58.483Z,15.43
2017-12-20T19:56:26.788Z,15.93
2017-12-20T19:58:55.726Z,16.00
2017-12-20T20:01:24.417Z,15.33
2017-12-20T20:03:54.751Z,15.67
2017-12-20T20:06:25.325Z,16.47
2017-12-20T20:08:55.586Z,16.13
2017-12-20T20:11:25.967Z,16.60
2017-12-20T20:13:53.786Z,16.83
2017-12-20T20:16:23.153Z,16.50
2017-12-20T20:18:52.076Z,15.07
2017-12-20T20:21:19.858Z,15.27
2017-12-20T20:23:47.645Z,14.87
2017-12-20T20:26:15.817Z,14.37
2017-12-20T20:28:44.285Z,15.07
2017-12-20T20:31:11.845Z,13.30
2017-12-20T20:33:39.728Z,13.50
2017-12-20T20:36:07.265Z,14.07
2017-12-20T20:38:34.800Z,14.43
2017-12-20T20:41:02.349Z,15.47
2017-12-20T20:43:31.387Z,13.83
2017-12-20T20:46:00.268Z,14.83
2017-12-20T20:48:30.315Z,13.90
2017-12-20T20:50:59.661Z,12.67
2017-12-20T20:53:29.213Z,12.10
2017-12-20T20:55:59.609Z,12.40
2017-12-20T20:58:29.536Z,12.30
2017-12-20T21:00:59.256Z,13.27
2017-12-20T21:03:28.251Z,12.53
2017-12-20T21:05:57.557Z,11.87
2017-12-20T21:08:26.558Z,12.27
2017-12-20T21:10:55.618Z,11.67
2017-12-20T21:13:25.582Z,11.80
2017-12-20T21:15:55.875Z,12.73
2017-12-20T21:18:26.630Z,12.40
2017-12-20T21:20:57.381Z,12.60
2017-12-20T21:23:26.539Z,12.10
2017-12-20T21:25:55.276Z,12.80
2017-12-20T21:28:24.024Z,12.10
2017-12-20T21:30:52.832Z,13.43
2017-12-20T21:33:21.221Z,14.90
2017-12-20T21:35:49.829Z,14.77
2017-12-20T21:38:17.568Z,14.63
2017-12-20T21:40:46.239Z,17.80
2017-12-20T21:43:14.719Z,17.43
2017-12-20T21:45:42.506Z,20.30
2017-12-20T21:48:10.865Z,23.00
2017-12-20T21:50:38.389Z,15.33
2017-12-20T21:53:06.804Z,11.97
2017-12-20T21:55:34.331Z,11.70
2017-12-20T21:58:02.658Z,11.63
2017-12-20T22:00:30.330Z,12.00
2017-12-20T22:02:58.477Z,11.00
2017-12-20T22:05:27.478Z,9.87
2017-12-20T22:07:55.756Z,11.20
2017-12-20T22:10:24.613Z,10.77
2017-12-20T22:12:52.481Z,11.03
2017-12-20T22:15:21.403Z,10.13
2017-12-20T22:17:50.351Z,10.03
2017-12-20T22:20:18.263Z,10.63
2017-12-20T22:22:47.380Z,10.50
2017-12-20T22:25:15.432Z,10.40
2017-12-20T22:27:43.085Z,10.87
2017-12-20T22:30:11.469Z,11.50
2017-12-20T22:32:39.004Z,10.33
2017-12-20T22:35:07.325Z,12.20
2017-12-20T22:37:34.852Z,11.40
2017-12-20T22:40:02.373Z,13.20
2017-12-20T22:42:30.173Z,11.10
2017-12-20T22:44:58.542Z,12.07
2017-12-20T22:47:27.882Z,10.77
2017-12-20T22:49:55.766Z,11.47
2017-12-20T22:52:23.922Z,12.53
2017-12-20T22:54:52.764Z,11.37
2017-12-20T22:57:22.419Z,11.83
2017-12-20T22:59:50.742Z,11.47
2017-12-20T23:02:18.361Z,11.63
2017-12-20T23:04:47.222Z,11.97
2017-12-20T23:07:15.523Z,11.53
2017-12-20T23:09:43.038Z,11.53
2017-12-20T23:12:10.597Z,11.33
2017-12-20T23:14:38.154Z,12.27
2017-12-20T23:17:05.671Z,13.37
2017-12-20T23:19:33.210Z,12.43
2017-12-20T23:22:00.723Z,12.17
2017-12-20T23:24:28.554Z,13.77
2017-12-20T23:26:56.217Z,13.83
2017-12-20T23:29:24.401Z,13.63
2017-12-20T23:31:52.907Z,12.07
2017-12-20T23:34:21.783Z,12.37
2017-12-20T23:36:49.652Z,14.90
2017-12-20T23:39:18.089Z,14.20
2017-12-20T23:41:46.365Z,13.57
2017-12-20T23:44:14.662Z,13.20
2017-12-20T23:46:42.204Z,12.90
2017-12-20T23:49:10.535Z,12.47
2017-12-20T23:51:38.062Z,13.13
2017-12-20T23:54:05.580Z,13.73
2017-12-20T23:56:33.113Z,14.10
2017-12-20T23:59:00.639Z,14.17
